sensor_id;sensor_type;location;lat;lon;timestamp;temperature;humidity
20349;DHT22;10332;50.208;18.988;2022-10-12T00:01:08;8.40;80.90
20349;DHT22;10332;50.208;18.988;2022-10-12T00:03:36;8.40;80.90
20349;DHT22;10332;50.208;18.988;2022-10-12T00:06:13;8.50;81.10
20349;DHT22;10332;50.208;18.988;2022-10-12T00:08:44;8.50;81.00
20349;DHT22;10332;50.208;18.988;2022-10-12T00:11:18;8.50;81.20
20349;DHT22;10332;50.208;18.988;2022-10-12T00:13:47;8.50;80.90
20349;DHT22;10332;50.208;18.988;2022-10-12T00:16:17;8.50;80.70
20349;DHT22;10332;50.208;18.988;2022-10-12T00:18:50;8.50;80.50
20349;DHT22;10332;50.208;18.988;2022-10-12T00:21:18;8.40;85.30
20349;DHT22;10332;50.208;18.988;2022-10-12T00:23:47;8.40;89.30
20349;DHT22;10332;50.208;18.988;2022-10-12T00:26:17;8.40;88.10
20349;DHT22;10332;50.208;18.988;2022-10-12T00:28:47;8.40;87.60
20349;DHT22;10332;50.208;18.988;2022-10-12T00:31:18;8.40;87.30
20349;DHT22;10332;50.208;18.988;2022-10-12T00:33:47;8.50;86.70
20349;DHT22;10332;50.208;18.988;2022-10-12T00:36:21;8.40;84.90
20349;DHT22;10332;50.208;18.988;2022-10-12T00:38:54;8.30;83.50
20349;DHT22;10332;50.208;18.988;2022-10-12T00:41:26;8.30;82.60
20349;DHT22;10332;50.208;18.988;2022-10-12T00:43:56;8.20;82.60
20349;DHT22;10332;50.208;18.988;2022-10-12T00:46:43;8.20;82.30
20349;DHT22;10332;50.208;18.988;2022-10-12T00:49:23;8.10;81.80
20349;DHT22;10332;50.208;18.988;2022-10-12T00:51:55;8.10;81.70
20349;DHT22;10332;50.208;18.988;2022-10-12T00:54:30;8.10;81.60
20349;DHT22;10332;50.208;18.988;2022-10-12T00:57:03;8.10;81.50
20349;DHT22;10332;50.208;18.988;2022-10-12T00:59:37;8.10;81.60
20349;DHT22;10332;50.208;18.988;2022-10-12T01:02:09;8.10;81.40
20349;DHT22;10332;50.208;18.988;2022-10-12T01:04:39;8.10;81.80
20349;DHT22;10332;50.208;18.988;2022-10-12T01:07:07;8.10;82.70
20349;DHT22;10332;50.208;18.988;2022-10-12T01:09:34;8.20;86.50
20349;DHT22;10332;50.208;18.988;2022-10-12T01:12:03;8.20;87.10
20349;DHT22;10332;50.208;18.988;2022-10-12T01:14:33;8.20;88.50
20349;DHT22;10332;50.208;18.988;2022-10-12T01:17:27;8.20;87.80
20349;DHT22;10332;50.208;18.988;2022-10-12T01:31:54;8.20;84.30
20349;DHT22;10332;50.208;18.988;2022-10-12T01:34:51;8.10;83.50
20349;DHT22;10332;50.208;18.988;2022-10-12T01:40:35;7.90;85.60
20349;DHT22;10332;50.208;18.988;2022-10-12T01:43:10;7.80;85.10
20349;DHT22;10332;50.208;18.988;2022-10-12T01:45:37;7.70;85.10
20349;DHT22;10332;50.208;18.988;2022-10-12T01:48:05;7.70;85.00
20349;DHT22;10332;50.208;18.988;2022-10-12T01:50:47;7.70;85.30
20349;DHT22;10332;50.208;18.988;2022-10-12T01:53:45;7.70;85.90
20349;DHT22;10332;50.208;18.988;2022-10-12T01:56:21;7.70;85.90
20349;DHT22;10332;50.208;18.988;2022-10-12T02:04:46;7.60;85.50
20349;DHT22;10332;50.208;18.988;2022-10-12T02:07:41;7.60;86.10
20349;DHT22;10332;50.208;18.988;2022-10-12T02:10:21;7.60;86.70
20349;DHT22;10332;50.208;18.988;2022-10-12T02:12:55;7.60;87.20
20349;DHT22;10332;50.208;18.988;2022-10-12T02:15:27;7.50;89.40
20349;DHT22;10332;50.208;18.988;2022-10-12T02:17:56;7.50;90.40
20349;DHT22;10332;50.208;18.988;2022-10-12T02:20:26;7.50;90.20
20349;DHT22;10332;50.208;18.988;2022-10-12T02:22:54;7.50;89.90
20349;DHT22;10332;50.208;18.988;2022-10-12T02:25:22;7.50;89.50
20349;DHT22;10332;50.208;18.988;2022-10-12T02:27:58;7.50;89.40
20349;DHT22;10332;50.208;18.988;2022-10-12T02:30:36;7.40;89.60
20349;DHT22;10332;50.208;18.988;2022-10-12T02:33:28;7.40;89.20
20349;DHT22;10332;50.208;18.988;2022-10-12T02:36:09;7.30;88.10
20349;DHT22;10332;50.208;18.988;2022-10-12T02:38:52;7.30;87.50
20349;DHT22;10332;50.208;18.988;2022-10-12T02:41:28;7.20;87.10
20349;DHT22;10332;50.208;18.988;2022-10-12T02:44:05;7.20;87.10
20349;DHT22;10332;50.208;18.988;2022-10-12T02:46:36;7.10;86.80
20349;DHT22;10332;50.208;18.988;2022-10-12T02:49:06;7.10;86.50
20349;DHT22;10332;50.208;18.988;2022-10-12T02:51:35;7.00;86.50
20349;DHT22;10332;50.208;18.988;2022-10-12T02:54:04;7.00;86.50
20349;DHT22;10332;50.208;18.988;2022-10-12T02:56:32;7.00;86.40
20349;DHT22;10332;50.208;18.988;2022-10-12T02:58:59;6.90;86.40
20349;DHT22;10332;50.208;18.988;2022-10-12T03:01:26;6.90;86.50
20349;DHT22;10332;50.208;18.988;2022-10-12T03:03:54;6.80;86.60
20349;DHT22;10332;50.208;18.988;2022-10-12T03:06:21;6.80;86.60
20349;DHT22;10332;50.208;18.988;2022-10-12T03:08:48;6.70;86.30
20349;DHT22;10332;50.208;18.988;2022-10-12T03:11:15;6.70;86.40
20349;DHT22;10332;50.208;18.988;2022-10-12T03:13:43;6.70;90.10
20349;DHT22;10332;50.208;18.988;2022-10-12T03:16:10;6.70;90.90
20349;DHT22;10332;50.208;18.988;2022-10-12T03:18:38;6.60;91.50
20349;DHT22;10332;50.208;18.988;2022-10-12T03:21:06;6.60;92.80
20349;DHT22;10332;50.208;18.988;2022-10-12T03:23:33;6.50;93.20
20349;DHT22;10332;50.208;18.988;2022-10-12T03:26:00;6.50;93.90
20349;DHT22;10332;50.208;18.988;2022-10-12T03:28:28;6.50;94.10
20349;DHT22;10332;50.208;18.988;2022-10-12T03:30:57;6.50;94.30
20349;DHT22;10332;50.208;18.988;2022-10-12T03:33:25;6.50;94.00
20349;DHT22;10332;50.208;18.988;2022-10-12T03:35:53;6.50;94.10
20349;DHT22;10332;50.208;18.988;2022-10-12T03:38:20;6.40;94.00
20349;DHT22;10332;50.208;18.988;2022-10-12T03:40:48;6.50;94.10
20349;DHT22;10332;50.208;18.988;2022-10-12T03:43:15;6.40;93.80
20349;DHT22;10332;50.208;18.988;2022-10-12T03:45:43;6.50;93.70
20349;DHT22;10332;50.208;18.988;2022-10-12T03:48:10;6.50;93.60
20349;DHT22;10332;50.208;18.988;2022-10-12T03:50:38;6.60;93.40
20349;DHT22;10332;50.208;18.988;2022-10-12T03:53:06;6.50;93.00
20349;DHT22;10332;50.208;18.988;2022-10-12T03:55:33;6.50;92.60
20349;DHT22;10332;50.208;18.988;2022-10-12T03:58:00;6.50;92.40
20349;DHT22;10332;50.208;18.988;2022-10-12T04:00:29;6.50;92.30
20349;DHT22;10332;50.208;18.988;2022-10-12T04:02:56;6.50;92.80
20349;DHT22;10332;50.208;18.988;2022-10-12T04:05:23;6.60;94.00
20349;DHT22;10332;50.208;18.988;2022-10-12T04:07:51;6.60;93.50
20349;DHT22;10332;50.208;18.988;2022-10-12T04:10:18;6.60;93.20
20349;DHT22;10332;50.208;18.988;2022-10-12T04:12:45;6.60;93.10
20349;DHT22;10332;50.208;18.988;2022-10-12T04:15:13;6.60;93.10
20349;DHT22;10332;50.208;18.988;2022-10-12T04:17:40;6.60;93.10
20349;DHT22;10332;50.208;18.988;2022-10-12T04:20:09;6.60;93.00
20349;DHT22;10332;50.208;18.988;2022-10-12T04:22:38;6.50;93.40
20349;DHT22;10332;50.208;18.988;2022-10-12T04:25:06;6.50;93.20
20349;DHT22;10332;50.208;18.988;2022-10-12T04:27:33;6.50;93.00
20349;DHT22;10332;50.208;18.988;2022-10-12T04:30:01;6.50;92.70
20349;DHT22;10332;50.208;18.988;2022-10-12T04:32:29;6.60;92.60
20349;DHT22;10332;50.208;18.988;2022-10-12T04:34:57;6.50;92.40
20349;DHT22;10332;50.208;18.988;2022-10-12T04:37:25;6.50;92.20
20349;DHT22;10332;50.208;18.988;2022-10-12T04:39:54;6.50;92.20
20349;DHT22;10332;50.208;18.988;2022-10-12T04:42:21;6.50;92.20
20349;DHT22;10332;50.208;18.988;2022-10-12T04:44:49;6.50;92.20
20349;DHT22;10332;50.208;18.988;2022-10-12T04:47:16;6.50;92.00
20349;DHT22;10332;50.208;18.988;2022-10-12T04:49:43;6.40;91.60
20349;DHT22;10332;50.208;18.988;2022-10-12T04:52:11;6.40;91.40
20349;DHT22;10332;50.208;18.988;2022-10-12T04:54:39;6.40;91.10
20349;DHT22;10332;50.208;18.988;2022-10-12T04:57:06;6.40;91.00
20349;DHT22;10332;50.208;18.988;2022-10-12T04:59:34;6.30;90.70
20349;DHT22;10332;50.208;18.988;2022-10-12T05:02:01;6.30;90.60
20349;DHT22;10332;50.208;18.988;2022-10-12T05:04:29;6.30;90.60
20349;DHT22;10332;50.208;18.988;2022-10-12T05:06:56;6.30;90.80
20349;DHT22;10332;50.208;18.988;2022-10-12T05:09:23;6.20;90.90
20349;DHT22;10332;50.208;18.988;2022-10-12T05:11:51;6.30;91.00
20349;DHT22;10332;50.208;18.988;2022-10-12T05:14:18;6.30;91.00
20349;DHT22;10332;50.208;18.988;2022-10-12T05:16:46;6.40;91.10
20349;DHT22;10332;50.208;18.988;2022-10-12T05:19:14;6.40;91.10
20349;DHT22;10332;50.208;18.988;2022-10-12T05:21:42;6.50;91.30
20349;DHT22;10332;50.208;18.988;2022-10-12T05:24:09;6.50;91.30
20349;DHT22;10332;50.208;18.988;2022-10-12T05:26:37;6.60;90.90
20349;DHT22;10332;50.208;18.988;2022-10-12T05:29:04;6.60;90.50
20349;DHT22;10332;50.208;18.988;2022-10-12T05:31:32;6.70;90.20
20349;DHT22;10332;50.208;18.988;2022-10-12T05:33:59;6.70;90.30
20349;DHT22;10332;50.208;18.988;2022-10-12T05:36:27;6.70;90.20
20349;DHT22;10332;50.208;18.988;2022-10-12T05:38:54;6.80;90.10
20349;DHT22;10332;50.208;18.988;2022-10-12T05:41:21;6.80;89.70
20349;DHT22;10332;50.208;18.988;2022-10-12T05:43:49;6.90;89.30
20349;DHT22;10332;50.208;18.988;2022-10-12T05:46:16;6.90;88.90
20349;DHT22;10332;50.208;18.988;2022-10-12T05:48:43;7.00;88.60
20349;DHT22;10332;50.208;18.988;2022-10-12T05:51:11;7.00;88.40
20349;DHT22;10332;50.208;18.988;2022-10-12T05:53:38;7.10;88.20
20349;DHT22;10332;50.208;18.988;2022-10-12T05:56:06;7.20;87.70
20349;DHT22;10332;50.208;18.988;2022-10-12T05:58:34;7.30;87.10
20349;DHT22;10332;50.208;18.988;2022-10-12T06:01:12;7.30;86.60
20349;DHT22;10332;50.208;18.988;2022-10-12T06:03:41;7.40;86.40
20349;DHT22;10332;50.208;18.988;2022-10-12T06:06:10;7.40;88.20
20349;DHT22;10332;50.208;18.988;2022-10-12T06:08:37;7.40;89.60
20349;DHT22;10332;50.208;18.988;2022-10-12T06:11:06;7.40;89.80
20349;DHT22;10332;50.208;18.988;2022-10-12T06:13:33;7.50;90.00
20349;DHT22;10332;50.208;18.988;2022-10-12T06:16:00;7.50;90.00
20349;DHT22;10332;50.208;18.988;2022-10-12T06:18:28;7.60;89.80
20349;DHT22;10332;50.208;18.988;2022-10-12T06:20:55;7.70;90.30
20349;DHT22;10332;50.208;18.988;2022-10-12T06:23:42;7.80;90.30
20349;DHT22;10332;50.208;18.988;2022-10-12T06:26:14;7.90;89.60
20349;DHT22;10332;50.208;18.988;2022-10-12T06:28:42;8.00;89.60
20349;DHT22;10332;50.208;18.988;2022-10-12T06:31:10;8.10;89.30
20349;DHT22;10332;50.208;18.988;2022-10-12T06:33:37;8.20;89.30
20349;DHT22;10332;50.208;18.988;2022-10-12T06:36:05;8.30;88.90
20349;DHT22;10332;50.208;18.988;2022-10-12T06:38:33;8.40;88.60
20349;DHT22;10332;50.208;18.988;2022-10-12T06:41:00;8.60;88.10
20349;DHT22;10332;50.208;18.988;2022-10-12T06:43:28;8.70;87.50
20349;DHT22;10332;50.208;18.988;2022-10-12T06:46:01;8.90;87.30
20349;DHT22;10332;50.208;18.988;2022-10-12T06:48:29;9.00;87.30
20349;DHT22;10332;50.208;18.988;2022-10-12T06:50:57;9.10;86.70
20349;DHT22;10332;50.208;18.988;2022-10-12T06:53:24;9.30;86.50
20349;DHT22;10332;50.208;18.988;2022-10-12T06:55:54;9.40;86.20
20349;DHT22;10332;50.208;18.988;2022-10-12T06:58:22;9.60;85.70
20349;DHT22;10332;50.208;18.988;2022-10-12T07:00:49;9.80;85.00
20349;DHT22;10332;50.208;18.988;2022-10-12T07:03:18;10.00;84.00
20349;DHT22;10332;50.208;18.988;2022-10-12T07:05:46;10.20;83.20
20349;DHT22;10332;50.208;18.988;2022-10-12T07:08:13;10.30;82.80
20349;DHT22;10332;50.208;18.988;2022-10-12T07:10:41;10.40;82.30
20349;DHT22;10332;50.208;18.988;2022-10-12T07:13:08;10.60;82.00
20349;DHT22;10332;50.208;18.988;2022-10-12T07:15:35;10.70;81.60
20349;DHT22;10332;50.208;18.988;2022-10-12T07:18:03;10.80;81.40
20349;DHT22;10332;50.208;18.988;2022-10-12T07:20:30;10.90;80.90
20349;DHT22;10332;50.208;18.988;2022-10-12T07:22:57;11.00;80.70
20349;DHT22;10332;50.208;18.988;2022-10-12T07:25:25;11.10;80.60
20349;DHT22;10332;50.208;18.988;2022-10-12T07:27:52;11.20;80.50
20349;DHT22;10332;50.208;18.988;2022-10-12T07:30:20;11.40;79.80
20349;DHT22;10332;50.208;18.988;2022-10-12T07:32:47;11.70;79.30
20349;DHT22;10332;50.208;18.988;2022-10-12T07:35:14;12.10;78.60
20349;DHT22;10332;50.208;18.988;2022-10-12T07:37:41;13.70;75.60
20349;DHT22;10332;50.208;18.988;2022-10-12T07:40:09;17.30;62.30
20349;DHT22;10332;50.208;18.988;2022-10-12T07:42:36;20.50;46.20
20349;DHT22;10332;50.208;18.988;2022-10-12T07:45:25;23.20;28.30
20349;DHT22;10332;50.208;18.988;2022-10-12T07:47:55;25.80;8.20
20349;DHT22;10332;50.208;18.988;2022-10-12T07:50:22;27.60;1.00
20349;DHT22;10332;50.208;18.988;2022-10-12T07:52:51;29.00;1.00
20349;DHT22;10332;50.208;18.988;2022-10-12T07:55:18;30.10;1.00
20349;DHT22;10332;50.208;18.988;2022-10-12T07:57:45;31.00;1.00
20349;DHT22;10332;50.208;18.988;2022-10-12T08:00:13;31.30;1.00
20349;DHT22;10332;50.208;18.988;2022-10-12T08:02:41;31.80;1.00
20349;DHT22;10332;50.208;18.988;2022-10-12T08:05:08;33.00;1.00
20349;DHT22;10332;50.208;18.988;2022-10-12T08:07:36;34.00;1.00
20349;DHT22;10332;50.208;18.988;2022-10-12T08:10:04;35.10;1.00
20349;DHT22;10332;50.208;18.988;2022-10-12T08:12:31;36.00;1.00
20349;DHT22;10332;50.208;18.988;2022-10-12T08:14:59;36.80;1.00
20349;DHT22;10332;50.208;18.988;2022-10-12T08:17:26;37.70;1.00
20349;DHT22;10332;50.208;18.988;2022-10-12T08:19:54;38.50;1.00
20349;DHT22;10332;50.208;18.988;2022-10-12T08:22:21;39.50;1.00
20349;DHT22;10332;50.208;18.988;2022-10-12T08:24:49;40.20;1.00
20349;DHT22;10332;50.208;18.988;2022-10-12T08:27:16;40.80;1.00
20349;DHT22;10332;50.208;18.988;2022-10-12T08:29:43;41.40;1.00
20349;DHT22;10332;50.208;18.988;2022-10-12T08:32:10;42.10;1.00
20349;DHT22;10332;50.208;18.988;2022-10-12T08:34:38;42.90;1.00
20349;DHT22;10332;50.208;18.988;2022-10-12T08:37:05;43.70;1.00
20349;DHT22;10332;50.208;18.988;2022-10-12T08:39:32;44.50;1.00
20349;DHT22;10332;50.208;18.988;2022-10-12T08:42:08;45.20;1.00
20349;DHT22;10332;50.208;18.988;2022-10-12T08:48:17;46.60;1.00
20349;DHT22;10332;50.208;18.988;2022-10-12T08:51:04;47.30;1.00
20349;DHT22;10332;50.208;18.988;2022-10-12T08:53:49;47.80;1.00
20349;DHT22;10332;50.208;18.988;2022-10-12T08:56:21;48.40;1.00
20349;DHT22;10332;50.208;18.988;2022-10-12T08:58:52;48.40;1.00
20349;DHT22;10332;50.208;18.988;2022-10-12T09:01:58;48.20;1.00
20349;DHT22;10332;50.208;18.988;2022-10-12T09:04:47;48.20;1.00
20349;DHT22;10332;50.208;18.988;2022-10-12T09:07:25;48.60;1.00
20349;DHT22;10332;50.208;18.988;2022-10-12T09:10:12;48.90;1.00
20349;DHT22;10332;50.208;18.988;2022-10-12T09:15:57;46.00;1.00
20349;DHT22;10332;50.208;18.988;2022-10-12T09:18:44;45.50;1.00
20349;DHT22;10332;50.208;18.988;2022-10-12T09:21:18;46.10;1.00
20349;DHT22;10332;50.208;18.988;2022-10-12T09:23:47;46.80;1.00
20349;DHT22;10332;50.208;18.988;2022-10-12T09:26:20;47.60;1.00
20349;DHT22;10332;50.208;18.988;2022-10-12T09:29:29;46.60;1.00
20349;DHT22;10332;50.208;18.988;2022-10-12T09:35:23;45.60;1.00
20349;DHT22;10332;50.208;18.988;2022-10-12T09:37:52;44.40;1.00
20349;DHT22;10332;50.208;18.988;2022-10-12T09:40:25;42.30;1.00
20349;DHT22;10332;50.208;18.988;2022-10-12T09:42:58;39.90;1.00
20349;DHT22;10332;50.208;18.988;2022-10-12T09:45:29;41.90;1.00
20349;DHT22;10332;50.208;18.988;2022-10-12T09:48:22;40.00;1.00
20349;DHT22;10332;50.208;18.988;2022-10-12T09:50:59;38.00;1.00
20349;DHT22;10332;50.208;18.988;2022-10-12T09:53:34;35.40;1.00
20349;DHT22;10332;50.208;18.988;2022-10-12T09:56:21;35.30;1.00
20349;DHT22;10332;50.208;18.988;2022-10-12T09:58:53;33.70;1.00
20349;DHT22;10332;50.208;18.988;2022-10-12T10:01:28;31.90;1.00
20349;DHT22;10332;50.208;18.988;2022-10-12T10:04:20;30.20;1.00
20349;DHT22;10332;50.208;18.988;2022-10-12T10:06:50;28.90;1.00
20349;DHT22;10332;50.208;18.988;2022-10-12T10:09:37;31.10;1.00
20349;DHT22;10332;50.208;18.988;2022-10-12T10:12:25;30.40;1.00
20349;DHT22;10332;50.208;18.988;2022-10-12T10:14:54;29.70;1.00
20349;DHT22;10332;50.208;18.988;2022-10-12T10:17:26;32.20;1.00
20349;DHT22;10332;50.208;18.988;2022-10-12T10:20:04;32.80;1.00
20349;DHT22;10332;50.208;18.988;2022-10-12T10:22:34;33.80;1.00
20349;DHT22;10332;50.208;18.988;2022-10-12T10:25:01;32.60;1.00
20349;DHT22;10332;50.208;18.988;2022-10-12T10:27:38;30.70;1.00
20349;DHT22;10332;50.208;18.988;2022-10-12T10:30:26;28.80;1.00
20349;DHT22;10332;50.208;18.988;2022-10-12T10:33:16;27.30;1.00
20349;DHT22;10332;50.208;18.988;2022-10-12T10:36:00;26.20;1.00
20349;DHT22;10332;50.208;18.988;2022-10-12T10:38:32;26.70;1.00
20349;DHT22;10332;50.208;18.988;2022-10-12T10:41:27;27.60;1.00
20349;DHT22;10332;50.208;18.988;2022-10-12T10:43:58;27.80;1.00
20349;DHT22;10332;50.208;18.988;2022-10-12T10:46:29;31.20;1.00
20349;DHT22;10332;50.208;18.988;2022-10-12T10:49:05;34.90;1.00
20349;DHT22;10332;50.208;18.988;2022-10-12T10:51:42;38.20;1.00
20349;DHT22;10332;50.208;18.988;2022-10-12T10:56:52;41.90;1.00
20349;DHT22;10332;50.208;18.988;2022-10-12T11:05:14;43.40;1.00
20349;DHT22;10332;50.208;18.988;2022-10-12T11:08:03;43.70;1.00
20349;DHT22;10332;50.208;18.988;2022-10-12T11:10:43;44.20;1.00
20349;DHT22;10332;50.208;18.988;2022-10-12T11:13:33;42.80;1.00
20349;DHT22;10332;50.208;18.988;2022-10-12T11:21:59;43.20;1.00
20349;DHT22;10332;50.208;18.988;2022-10-12T11:24:37;45.00;1.00
20349;DHT22;10332;50.208;18.988;2022-10-12T11:27:22;45.90;1.00
20349;DHT22;10332;50.208;18.988;2022-10-12T11:29:59;46.70;1.00
20349;DHT22;10332;50.208;18.988;2022-10-12T11:33:03;47.00;1.00
20349;DHT22;10332;50.208;18.988;2022-10-12T11:35:40;47.30;1.00
20349;DHT22;10332;50.208;18.988;2022-10-12T11:38:14;48.00;1.00
20349;DHT22;10332;50.208;18.988;2022-10-12T11:40:54;48.40;1.00
20349;DHT22;10332;50.208;18.988;2022-10-12T11:43:54;48.50;1.00
20349;DHT22;10332;50.208;18.988;2022-10-12T11:46:33;48.60;1.00
20349;DHT22;10332;50.208;18.988;2022-10-12T11:49:28;48.80;1.00
20349;DHT22;10332;50.208;18.988;2022-10-12T11:57:59;49.10;1.00
20349;DHT22;10332;50.208;18.988;2022-10-12T12:11:31;50.10;1.00
20349;DHT22;10332;50.208;18.988;2022-10-12T12:16:47;51.30;1.00
20349;DHT22;10332;50.208;18.988;2022-10-12T12:19:34;52.00;1.00
20349;DHT22;10332;50.208;18.988;2022-10-12T12:27:43;50.90;1.00
20349;DHT22;10332;50.208;18.988;2022-10-12T12:32:56;50.40;1.00
20349;DHT22;10332;50.208;18.988;2022-10-12T12:41:01;47.70;1.00
20349;DHT22;10332;50.208;18.988;2022-10-12T12:46:09;49.20;1.00
20349;DHT22;10332;50.208;18.988;2022-10-12T12:51:10;49.70;1.00
20349;DHT22;10332;50.208;18.988;2022-10-12T12:54:01;48.90;1.00
20349;DHT22;10332;50.208;18.988;2022-10-12T12:59:40;45.50;1.00
20349;DHT22;10332;50.208;18.988;2022-10-12T13:08:48;46.90;1.00
20349;DHT22;10332;50.208;18.988;2022-10-12T13:11:54;46.50;1.00
20349;DHT22;10332;50.208;18.988;2022-10-12T13:17:56;45.40;1.00
20349;DHT22;10332;50.208;18.988;2022-10-12T13:20:30;42.10;1.00
20349;DHT22;10332;50.208;18.988;2022-10-12T13:23:00;41.20;1.00
20349;DHT22;10332;50.208;18.988;2022-10-12T13:25:42;40.30;1.00
20349;DHT22;10332;50.208;18.988;2022-10-12T13:28:18;39.60;1.00
20349;DHT22;10332;50.208;18.988;2022-10-12T13:33:48;38.20;1.00
20349;DHT22;10332;50.208;18.988;2022-10-12T13:36:28;39.70;1.00
20349;DHT22;10332;50.208;18.988;2022-10-12T13:39:12;40.80;1.00
20349;DHT22;10332;50.208;18.988;2022-10-12T13:41:43;41.40;1.00
20349;DHT22;10332;50.208;18.988;2022-10-12T13:47:02;42.70;1.00
20349;DHT22;10332;50.208;18.988;2022-10-12T13:49:47;43.80;1.00
20349;DHT22;10332;50.208;18.988;2022-10-12T13:52:16;44.60;1.00
20349;DHT22;10332;50.208;18.988;2022-10-12T13:54:54;44.80;1.00
20349;DHT22;10332;50.208;18.988;2022-10-12T13:57:28;45.40;1.00
20349;DHT22;10332;50.208;18.988;2022-10-12T14:02:41;46.40;1.00
20349;DHT22;10332;50.208;18.988;2022-10-12T14:05:21;46.70;1.00
20349;DHT22;10332;50.208;18.988;2022-10-12T14:07:52;46.40;1.00
20349;DHT22;10332;50.208;18.988;2022-10-12T14:10:34;46.60;1.00
20349;DHT22;10332;50.208;18.988;2022-10-12T14:13:04;46.80;1.00
20349;DHT22;10332;50.208;18.988;2022-10-12T14:15:37;46.70;1.00
20349;DHT22;10332;50.208;18.988;2022-10-12T14:18:38;46.00;1.00
20349;DHT22;10332;50.208;18.988;2022-10-12T14:21:28;44.90;1.00
20349;DHT22;10332;50.208;18.988;2022-10-12T14:24:09;44.40;1.00
20349;DHT22;10332;50.208;18.988;2022-10-12T14:26:39;44.60;1.00
20349;DHT22;10332;50.208;18.988;2022-10-12T14:32:34;43.80;1.00
20349;DHT22;10332;50.208;18.988;2022-10-12T14:37:45;42.40;1.00
20349;DHT22;10332;50.208;18.988;2022-10-12T14:40:24;42.70;1.00
20349;DHT22;10332;50.208;18.988;2022-10-12T14:42:59;42.60;1.00
20349;DHT22;10332;50.208;18.988;2022-10-12T14:45:34;41.90;1.00
20349;DHT22;10332;50.208;18.988;2022-10-12T14:48:13;41.20;1.00
20349;DHT22;10332;50.208;18.988;2022-10-12T14:50:44;40.50;1.00
20349;DHT22;10332;50.208;18.988;2022-10-12T14:53:13;40.00;1.00
20349;DHT22;10332;50.208;18.988;2022-10-12T14:55:42;39.20;1.00
20349;DHT22;10332;50.208;18.988;2022-10-12T14:58:15;38.50;1.00
20349;DHT22;10332;50.208;18.988;2022-10-12T15:00:43;37.80;1.00
20349;DHT22;10332;50.208;18.988;2022-10-12T15:03:11;37.20;1.00
20349;DHT22;10332;50.208;18.988;2022-10-12T15:05:38;36.20;1.00
20349;DHT22;10332;50.208;18.988;2022-10-12T15:08:06;34.30;1.00
20349;DHT22;10332;50.208;18.988;2022-10-12T15:10:35;32.50;1.00
20349;DHT22;10332;50.208;18.988;2022-10-12T15:13:03;30.80;1.00
20349;DHT22;10332;50.208;18.988;2022-10-12T15:15:38;29.20;1.00
20349;DHT22;10332;50.208;18.988;2022-10-12T15:18:09;27.90;1.00
20349;DHT22;10332;50.208;18.988;2022-10-12T15:20:36;26.60;1.00
20349;DHT22;10332;50.208;18.988;2022-10-12T15:23:05;25.50;1.00
20349;DHT22;10332;50.208;18.988;2022-10-12T15:25:54;24.40;1.00
20349;DHT22;10332;50.208;18.988;2022-10-12T15:28:22;23.60;1.00
20349;DHT22;10332;50.208;18.988;2022-10-12T15:30:50;23.00;1.00
20349;DHT22;10332;50.208;18.988;2022-10-12T15:33:39;22.50;1.00
20349;DHT22;10332;50.208;18.988;2022-10-12T15:36:08;21.90;1.00
20349;DHT22;10332;50.208;18.988;2022-10-12T15:38:36;21.40;1.00
20349;DHT22;10332;50.208;18.988;2022-10-12T15:41:04;20.90;1.00
20349;DHT22;10332;50.208;18.988;2022-10-12T15:43:31;20.40;1.00
20349;DHT22;10332;50.208;18.988;2022-10-12T15:46:04;19.90;1.00
20349;DHT22;10332;50.208;18.988;2022-10-12T15:48:31;19.40;1.00
20349;DHT22;10332;50.208;18.988;2022-10-12T15:50:58;19.00;1.00
20349;DHT22;10332;50.208;18.988;2022-10-12T15:53:26;18.60;1.00
20349;DHT22;10332;50.208;18.988;2022-10-12T15:55:54;18.30;1.00
20349;DHT22;10332;50.208;18.988;2022-10-12T15:58:22;18.00;1.00
20349;DHT22;10332;50.208;18.988;2022-10-12T16:00:50;17.80;1.00
20349;DHT22;10332;50.208;18.988;2022-10-12T16:03:19;17.60;1.00
20349;DHT22;10332;50.208;18.988;2022-10-12T16:05:52;17.50;1.00
20349;DHT22;10332;50.208;18.988;2022-10-12T16:08:21;17.30;1.00
20349;DHT22;10332;50.208;18.988;2022-10-12T16:10:49;17.20;1.00
20349;DHT22;10332;50.208;18.988;2022-10-12T16:13:17;17.00;1.00
20349;DHT22;10332;50.208;18.988;2022-10-12T16:15:44;16.70;1.00
20349;DHT22;10332;50.208;18.988;2022-10-12T16:18:12;16.60;1.00
20349;DHT22;10332;50.208;18.988;2022-10-12T16:20:43;16.40;1.00
20349;DHT22;10332;50.208;18.988;2022-10-12T16:23:22;16.10;1.00
20349;DHT22;10332;50.208;18.988;2022-10-12T16:25:54;15.90;1.00
20349;DHT22;10332;50.208;18.988;2022-10-12T16:28:24;15.80;1.00
20349;DHT22;10332;50.208;18.988;2022-10-12T16:30:52;15.70;1.00
20349;DHT22;10332;50.208;18.988;2022-10-12T16:33:20;15.60;1.00
20349;DHT22;10332;50.208;18.988;2022-10-12T16:35:48;15.60;1.00
20349;DHT22;10332;50.208;18.988;2022-10-12T16:38:15;15.50;1.00
20349;DHT22;10332;50.208;18.988;2022-10-12T16:40:46;15.40;1.00
20349;DHT22;10332;50.208;18.988;2022-10-12T16:43:17;15.30;1.00
20349;DHT22;10332;50.208;18.988;2022-10-12T16:45:53;15.20;1.00
20349;DHT22;10332;50.208;18.988;2022-10-12T16:48:21;15.00;1.00
20349;DHT22;10332;50.208;18.988;2022-10-12T16:50:49;14.90;1.00
20349;DHT22;10332;50.208;18.988;2022-10-12T16:53:16;14.80;1.00
20349;DHT22;10332;50.208;18.988;2022-10-12T16:55:43;14.70;1.00
20349;DHT22;10332;50.208;18.988;2022-10-12T16:58:11;14.60;1.00
20349;DHT22;10332;50.208;18.988;2022-10-12T17:00:39;14.60;1.00
20349;DHT22;10332;50.208;18.988;2022-10-12T17:03:08;14.50;1.00
20349;DHT22;10332;50.208;18.988;2022-10-12T17:05:40;14.40;1.00
20349;DHT22;10332;50.208;18.988;2022-10-12T17:08:08;14.40;1.00
20349;DHT22;10332;50.208;18.988;2022-10-12T17:10:43;14.30;1.00
20349;DHT22;10332;50.208;18.988;2022-10-12T17:13:11;14.20;1.00
20349;DHT22;10332;50.208;18.988;2022-10-12T17:15:42;14.20;1.00
20349;DHT22;10332;50.208;18.988;2022-10-12T17:18:10;14.10;1.00
20349;DHT22;10332;50.208;18.988;2022-10-12T17:20:37;14.00;1.00
20349;DHT22;10332;50.208;18.988;2022-10-12T17:23:04;13.90;1.00
20349;DHT22;10332;50.208;18.988;2022-10-12T17:25:32;13.70;1.00
20349;DHT22;10332;50.208;18.988;2022-10-12T17:27:59;13.70;1.00
20349;DHT22;10332;50.208;18.988;2022-10-12T17:30:26;13.50;1.00
20349;DHT22;10332;50.208;18.988;2022-10-12T17:32:54;13.40;1.00
20349;DHT22;10332;50.208;18.988;2022-10-12T17:35:21;13.30;1.00
20349;DHT22;10332;50.208;18.988;2022-10-12T17:37:49;13.20;1.00
20349;DHT22;10332;50.208;18.988;2022-10-12T17:40:16;13.10;1.00
20349;DHT22;10332;50.208;18.988;2022-10-12T17:42:44;13.10;1.00
20349;DHT22;10332;50.208;18.988;2022-10-12T17:45:11;13.10;1.00
20349;DHT22;10332;50.208;18.988;2022-10-12T17:47:39;13.00;1.00
20349;DHT22;10332;50.208;18.988;2022-10-12T17:50:07;13.00;1.00
20349;DHT22;10332;50.208;18.988;2022-10-12T17:52:37;13.00;1.00